createdAt,value
2022-11-28T00:00:03.846Z,0.00
2022-11-28T00:01:04.113Z,0.00
2022-11-28T00:02:03.908Z,0.00
2022-11-28T00:03:03.910Z,0.00
2022-11-28T00:04:03.915Z,0.00
2022-11-28T00:05:03.796Z,0.00
2022-11-28T00:06:04.260Z,0.00
2022-11-28T00:07:03.750Z,0.00
2022-11-28T00:08:03.855Z,0.00
2022-11-28T00:09:03.758Z,0.00
2022-11-28T00:10:03.792Z,0.00
2022-11-28T00:11:03.749Z,0.00
2022-11-28T00:12:03.754Z,0.00
2022-11-28T00:13:03.685Z,0.00
2022-11-28T00:14:03.676Z,0.00
2022-11-28T00:15:03.694Z,0.00
2022-11-28T00:16:03.763Z,0.00
2022-11-28T00:17:03.649Z,0.00
2022-11-28T00:18:03.635Z,0.00
2022-11-28T00:19:03.671Z,0.00
2022-11-28T00:20:03.668Z,0.00
2022-11-28T00:21:03.625Z,0.00
2022-11-28T00:22:03.632Z,0.00
2022-11-28T00:23:03.548Z,0.00
2022-11-28T00:24:03.575Z,0.00
2022-11-28T00:25:03.692Z,0.00
2022-11-28T00:26:03.576Z,0.00
2022-11-28T00:27:03.592Z,0.00
2022-11-28T00:28:03.597Z,0.00
2022-11-28T00:29:03.602Z,0.00
2022-11-28T00:30:03.742Z,0.00
2022-11-28T00:33:01.405Z,0.00
2022-11-28T00:34:01.052Z,0.00
2022-11-28T00:35:00.873Z,0.00
2022-11-28T00:36:00.867Z,0.00
2022-11-28T00:37:00.858Z,0.00
2022-11-28T00:38:00.744Z,0.00
2022-11-28T00:39:00.850Z,0.00
2022-11-28T00:40:00.728Z,0.00
2022-11-28T00:41:00.727Z,0.00
2022-11-28T00:42:00.731Z,0.00
2022-11-28T00:43:00.693Z,0.00
2022-11-28T00:44:00.802Z,0.00
2022-11-28T00:45:00.750Z,0.00
2022-11-28T00:46:00.765Z,0.00
2022-11-28T00:47:00.677Z,0.00
2022-11-28T00:57:40.920Z,0.00
2022-11-28T00:58:41.855Z,0.00
2022-11-28T00:59:40.604Z,0.00
2022-11-28T01:00:40.524Z,0.00
2022-11-28T01:01:40.645Z,0.00
2022-11-28T01:02:40.572Z,0.00
2022-11-28T01:03:40.466Z,0.00
2022-11-28T01:04:40.789Z,0.00
2022-11-28T01:05:40.496Z,0.00
2022-11-28T01:06:40.438Z,0.00
2022-11-28T01:07:40.523Z,0.00
2022-11-28T01:08:40.423Z,0.00
2022-11-28T01:09:40.427Z,0.00
2022-11-28T01:10:40.381Z,0.00
2022-11-28T01:11:40.365Z,0.00
2022-11-28T01:12:40.367Z,0.00
2022-11-28T01:13:40.439Z,0.00
2022-11-28T01:14:40.563Z,0.00
2022-11-28T01:15:40.300Z,0.00
2022-11-28T01:16:40.391Z,0.00
2022-11-28T01:17:40.287Z,0.00
2022-11-28T01:18:40.334Z,0.00
2022-11-28T01:19:40.307Z,0.00
2022-11-28T01:20:40.278Z,0.00
2022-11-28T01:21:40.235Z,0.00
2022-11-28T01:22:40.224Z,0.00
2022-11-28T01:23:40.236Z,0.00
2022-11-28T01:24:40.560Z,0.00
2022-11-28T01:25:40.211Z,0.00
2022-11-28T01:26:40.188Z,0.00
2022-11-28T01:27:40.223Z,0.00
2022-11-28T01:28:40.145Z,0.00
2022-11-28T01:29:40.253Z,0.00
2022-11-28T01:30:40.194Z,0.00
2022-11-28T01:31:40.172Z,0.00
2022-11-28T01:32:40.189Z,0.00
2022-11-28T01:33:40.183Z,0.00
2022-11-28T01:34:40.268Z,0.00
2022-11-28T01:35:40.110Z,0.00
2022-11-28T01:36:40.104Z,0.00
2022-11-28T01:37:40.132Z,0.00
2022-11-28T01:38:40.152Z,0.00
2022-11-28T01:39:40.097Z,0.00
2022-11-28T01:40:40.115Z,0.00
2022-11-28T01:41:40.062Z,0.00
2022-11-28T01:42:40.122Z,0.00
2022-11-28T01:43:40.128Z,0.00
2022-11-28T01:44:40.318Z,0.00
2022-11-28T01:45:40.071Z,0.00
2022-11-28T01:46:39.985Z,0.00
2022-11-28T01:47:40.054Z,0.00
2022-11-28T01:48:39.951Z,0.00
2022-11-28T01:49:39.970Z,0.00
2022-11-28T01:50:39.914Z,0.00
2022-11-28T01:51:39.915Z,0.00
2022-11-28T01:52:39.889Z,0.00
2022-11-28T01:53:39.897Z,0.00
2022-11-28T01:54:40.184Z,0.00
2022-11-28T01:55:39.898Z,0.00
2022-11-28T01:56:39.924Z,0.00
2022-11-28T01:57:39.848Z,0.00
2022-11-28T01:58:39.867Z,0.00
2022-11-28T01:59:39.865Z,0.00
2022-11-28T02:00:39.941Z,0.00
2022-11-28T02:01:39.924Z,0.00
2022-11-28T02:02:40.022Z,0.00
2022-11-28T02:03:39.883Z,0.00
2022-11-28T02:04:39.932Z,0.00
2022-11-28T02:05:39.779Z,0.00
2022-11-28T02:06:39.740Z,0.00
2022-11-28T02:07:39.799Z,0.00
2022-11-28T02:08:39.701Z,0.00
2022-11-28T02:09:39.727Z,0.00
2022-11-28T02:10:39.782Z,0.00
2022-11-28T02:11:39.672Z,0.00
2022-11-28T02:12:39.720Z,0.00
2022-11-28T02:13:39.668Z,0.00
2022-11-28T02:14:39.780Z,0.00
2022-11-28T02:15:39.769Z,0.00
2022-11-28T02:16:39.691Z,0.00
2022-11-28T02:17:39.737Z,0.00
2022-11-28T02:18:39.638Z,0.00
2022-11-28T02:19:39.700Z,0.00
2022-11-28T02:20:39.623Z,0.00
2022-11-28T02:21:39.643Z,0.00
2022-11-28T02:22:39.578Z,0.00
2022-11-28T02:23:39.594Z,0.00
2022-11-28T02:24:39.859Z,0.00
2022-11-28T02:25:39.533Z,0.00
2022-11-28T02:26:39.616Z,0.00
2022-11-28T02:27:39.519Z,0.00
2022-11-28T02:28:39.592Z,0.00
2022-11-28T02:29:39.579Z,0.00
2022-11-28T02:30:39.462Z,0.00
2022-11-28T02:31:39.497Z,0.00
2022-11-28T02:32:39.454Z,0.00
2022-11-28T02:33:39.632Z,0.00
2022-11-28T02:34:43.112Z,0.00
2022-11-28T02:35:40.499Z,0.00
2022-11-28T02:36:39.386Z,0.00
2022-11-28T02:37:39.453Z,0.00
2022-11-28T02:38:39.391Z,0.00
2022-11-28T02:39:39.356Z,0.00
2022-11-28T02:40:39.355Z,0.00
2022-11-28T02:41:39.351Z,0.00
2022-11-28T02:42:39.364Z,0.00
2022-11-28T02:43:39.362Z,0.00
2022-11-28T02:44:39.520Z,0.00
2022-11-28T02:45:39.384Z,0.00
2022-11-28T02:46:39.318Z,0.00
2022-11-28T02:47:39.290Z,0.00
2022-11-28T02:48:39.509Z,0.00
2022-11-28T02:49:39.450Z,0.00
2022-11-28T02:50:39.236Z,0.00
2022-11-28T02:51:39.349Z,0.00
2022-11-28T02:52:39.210Z,0.00
2022-11-28T02:53:39.244Z,0.00
2022-11-28T02:54:39.342Z,0.00
2022-11-28T02:55:39.195Z,0.00
2022-11-28T02:56:39.286Z,0.00
2022-11-28T02:57:39.247Z,0.00
2022-11-28T02:58:39.251Z,0.00
2022-11-28T02:59:39.151Z,0.00
2022-11-28T03:00:39.373Z,0.00
2022-11-28T03:01:39.188Z,0.00
2022-11-28T03:02:39.129Z,0.00
2022-11-28T03:03:39.225Z,0.00
2022-11-28T03:04:39.239Z,0.00
2022-11-28T03:05:39.174Z,0.00
2022-11-28T03:06:39.083Z,0.00
2022-11-28T03:07:39.131Z,0.00
2022-11-28T03:08:39.061Z,0.00
2022-11-28T03:09:39.040Z,0.00
2022-11-28T03:10:39.079Z,0.00
2022-11-28T03:11:39.012Z,0.00
2022-11-28T03:12:39.157Z,0.00
2022-11-28T03:13:39.025Z,0.00
2022-11-28T03:14:39.085Z,0.00
2022-11-28T03:15:38.969Z,0.00
2022-11-28T03:16:39.113Z,0.00
2022-11-28T03:17:39.031Z,0.00
2022-11-28T03:18:38.977Z,0.00
2022-11-28T03:19:39.019Z,0.00
2022-11-28T03:20:38.902Z,0.00
2022-11-28T03:21:39.000Z,0.00
2022-11-28T03:22:38.893Z,0.00
2022-11-28T03:23:38.883Z,0.00
2022-11-28T03:24:38.946Z,0.00
2022-11-28T03:25:38.887Z,0.00
2022-11-28T03:26:38.836Z,0.00
2022-11-28T03:27:38.896Z,0.00
2022-11-28T03:28:43.454Z,0.00
2022-11-28T03:29:39.864Z,0.00
2022-11-28T03:30:38.958Z,0.00
2022-11-28T03:31:38.841Z,0.00
2022-11-28T03:32:38.775Z,0.00
2022-11-28T03:33:38.798Z,0.00
2022-11-28T03:34:38.839Z,0.00
2022-11-28T03:35:38.824Z,0.00
2022-11-28T03:36:38.736Z,0.00
2022-11-28T03:37:38.811Z,0.00
2022-11-28T03:38:38.755Z,0.00
2022-11-28T03:39:38.724Z,0.00
2022-11-28T03:40:38.755Z,0.00
2022-11-28T03:41:38.693Z,0.00
2022-11-28T03:42:38.728Z,0.00
2022-11-28T03:43:38.674Z,0.00
2022-11-28T03:44:38.655Z,0.00
2022-11-28T03:45:38.649Z,0.00
2022-11-28T03:46:38.704Z,0.00
2022-11-28T03:47:38.627Z,0.00
2022-11-28T03:48:38.623Z,0.00
2022-11-28T03:49:38.620Z,0.00
2022-11-28T03:50:38.645Z,0.00
2022-11-28T03:51:38.559Z,0.00
2022-11-28T03:52:38.567Z,0.00
2022-11-28T03:53:38.663Z,0.00
2022-11-28T03:54:38.517Z,0.00
2022-11-28T03:55:38.591Z,0.00
2022-11-28T03:56:38.537Z,0.00
2022-11-28T03:57:38.498Z,0.00
2022-11-28T03:58:38.488Z,0.00
2022-11-28T03:59:38.462Z,0.00
2022-11-28T04:00:38.503Z,0.00
2022-11-28T04:01:38.515Z,0.00
2022-11-28T04:02:38.541Z,0.00
2022-11-28T04:03:38.485Z,0.00
2022-11-28T04:04:38.413Z,0.00
2022-11-28T04:05:38.451Z,0.00
2022-11-28T04:06:38.399Z,0.00
2022-11-28T04:07:38.457Z,0.00
2022-11-28T04:08:38.394Z,0.00
2022-11-28T04:09:38.469Z,0.00
2022-11-28T04:10:38.365Z,0.00
2022-11-28T04:11:38.369Z,0.00
2022-11-28T04:12:38.317Z,0.00
2022-11-28T04:13:38.370Z,0.00
2022-11-28T04:14:38.366Z,0.00
2022-11-28T04:15:38.322Z,0.00
2022-11-28T04:16:38.381Z,0.00
2022-11-28T04:17:38.336Z,0.00
2022-11-28T04:18:38.274Z,0.00
2022-11-28T04:19:38.237Z,0.00
2022-11-28T04:20:38.242Z,0.00
2022-11-28T04:21:38.227Z,0.00
2022-11-28T04:22:38.311Z,0.00
2022-11-28T04:23:38.224Z,0.00
2022-11-28T04:24:38.297Z,0.00
2022-11-28T04:25:38.268Z,0.00
2022-11-28T04:26:38.185Z,0.00
2022-11-28T04:27:38.250Z,0.00
2022-11-28T04:28:38.166Z,0.00
2022-11-28T04:29:38.159Z,0.00
2022-11-28T04:30:38.137Z,0.00
2022-11-28T04:31:38.339Z,0.00
2022-11-28T04:32:38.195Z,0.00
2022-11-28T04:33:38.115Z,0.00
2022-11-28T04:34:38.088Z,0.00
2022-11-28T04:35:38.208Z,0.00
2022-11-28T04:36:38.077Z,0.00
2022-11-28T04:37:38.068Z,0.00
2022-11-28T04:38:38.130Z,0.00
2022-11-28T04:39:38.086Z,0.00
2022-11-28T04:40:38.064Z,0.00
2022-11-28T04:41:38.125Z,0.00
2022-11-28T04:42:38.020Z,0.00
2022-11-28T04:43:38.045Z,0.00
2022-11-28T04:44:37.991Z,0.00
2022-11-28T04:45:38.090Z,0.00
2022-11-28T04:46:37.983Z,0.00
2022-11-28T04:47:37.997Z,0.00
2022-11-28T04:48:37.987Z,0.00
2022-11-28T04:49:37.979Z,0.00
2022-11-28T04:50:37.976Z,0.00
2022-11-28T04:51:37.931Z,0.00
2022-11-28T04:52:37.903Z,0.00
2022-11-28T04:53:37.874Z,0.00
2022-11-28T04:54:37.875Z,0.00
2022-11-28T04:55:37.907Z,0.00
2022-11-28T04:56:37.881Z,0.00
2022-11-28T04:57:37.922Z,0.00
2022-11-28T04:58:37.955Z,0.00
2022-11-28T04:59:37.855Z,0.00
2022-11-28T05:00:38.081Z,0.00
2022-11-28T05:01:37.795Z,0.00
2022-11-28T05:02:37.948Z,0.00
2022-11-28T05:03:42.251Z,0.00
2022-11-28T05:04:37.808Z,0.00
2022-11-28T05:05:37.836Z,0.00
2022-11-28T05:06:37.806Z,0.00
2022-11-28T05:07:46.320Z,0.00
2022-11-28T05:08:37.745Z,0.00
2022-11-28T05:09:38.231Z,0.00
2022-11-28T05:10:37.666Z,0.00
2022-11-28T05:11:37.795Z,0.00
2022-11-28T05:12:37.701Z,0.00
2022-11-28T05:13:37.774Z,0.00
2022-11-28T05:14:37.770Z,0.00
2022-11-28T05:15:38.344Z,0.00
2022-11-28T05:16:37.896Z,0.00
2022-11-28T05:17:41.952Z,0.00
2022-11-28T05:18:38.649Z,0.00
2022-11-28T05:19:37.597Z,0.00
2022-11-28T05:20:37.816Z,0.00
2022-11-28T05:21:38.414Z,0.00
2022-11-28T05:22:41.255Z,0.00
2022-11-28T05:23:37.558Z,0.00
2022-11-28T05:24:38.779Z,0.00
2022-11-28T05:25:38.121Z,0.00
2022-11-28T05:26:38.508Z,0.00
2022-11-28T05:27:37.596Z,0.00
2022-11-28T05:28:37.927Z,0.00
2022-11-28T05:29:37.632Z,0.00
2022-11-28T05:30:37.525Z,0.00
2022-11-28T05:31:37.526Z,0.00
2022-11-28T05:32:37.471Z,0.00
2022-11-28T05:33:37.576Z,0.00
2022-11-28T05:34:37.882Z,0.00
2022-11-28T05:35:37.523Z,0.00
2022-11-28T05:36:37.595Z,0.00
2022-11-28T05:37:37.415Z,0.00
2022-11-28T05:38:40.233Z,0.00
2022-11-28T05:39:37.388Z,0.00
2022-11-28T05:40:37.336Z,0.00
2022-11-28T05:41:37.349Z,0.00
2022-11-28T05:42:37.373Z,0.00
2022-11-28T05:43:37.310Z,0.00
2022-11-28T05:44:37.338Z,0.00
2022-11-28T05:45:37.437Z,0.00
2022-11-28T05:46:37.342Z,0.00
2022-11-28T05:47:37.253Z,0.00
2022-11-28T05:48:37.340Z,0.00
2022-11-28T05:49:37.238Z,0.00
2022-11-28T05:50:40.055Z,0.00
2022-11-28T05:51:37.274Z,0.00
2022-11-28T05:52:37.278Z,0.00
2022-11-28T05:53:37.495Z,0.00
2022-11-28T05:54:37.187Z,0.00
2022-11-28T05:55:37.193Z,0.00
2022-11-28T05:56:42.248Z,0.00
2022-11-28T05:57:38.214Z,0.00
2022-11-28T05:58:37.225Z,0.00
2022-11-28T05:59:37.174Z,0.00
2022-11-28T06:00:37.197Z,0.00
2022-11-28T06:01:37.216Z,0.00
2022-11-28T06:02:37.193Z,0.00
2022-11-28T06:03:37.167Z,0.00
2022-11-28T06:04:37.153Z,0.00
2022-11-28T06:05:44.253Z,0.00
2022-11-28T06:06:38.063Z,0.00
2022-11-28T06:07:37.099Z,0.00
2022-11-28T06:08:37.207Z,0.00
2022-11-28T06:09:37.040Z,0.00
2022-11-28T06:10:36.989Z,0.00
2022-11-28T06:11:37.049Z,0.00
2022-11-28T06:12:36.998Z,0.00
2022-11-28T06:13:37.953Z,0.00
2022-11-28T06:14:37.058Z,0.00
2022-11-28T06:15:38.537Z,0.00
2022-11-28T06:16:37.025Z,0.00
2022-11-28T06:17:37.029Z,0.00
2022-11-28T06:18:36.938Z,0.00
2022-11-28T06:19:36.917Z,0.00
2022-11-28T06:20:36.899Z,0.00
2022-11-28T06:21:36.878Z,0.00
2022-11-28T06:22:36.875Z,0.00
2022-11-28T06:23:36.881Z,0.00
2022-11-28T06:24:36.897Z,0.00
2022-11-28T06:25:36.833Z,0.00
2022-11-28T06:26:36.831Z,0.00
2022-11-28T06:27:36.810Z,0.00
2022-11-28T06:28:36.815Z,0.00
2022-11-28T06:29:36.802Z,0.00
2022-11-28T06:30:36.842Z,0.00
2022-11-28T06:31:36.826Z,0.00
2022-11-28T06:32:36.751Z,0.00
2022-11-28T06:33:36.856Z,0.00
2022-11-28T06:34:36.825Z,0.00
2022-11-28T06:35:36.764Z,0.00
2022-11-28T06:36:36.769Z,0.00
2022-11-28T06:37:36.696Z,0.00
2022-11-28T06:38:36.683Z,0.00
2022-11-28T06:41:41.850Z,0.00
2022-11-28T06:42:41.786Z,0.00
2022-11-28T06:49:11.742Z,0.00
2022-11-28T06:50:19.376Z,0.00
2022-11-28T06:51:10.601Z,0.00
2022-11-28T06:52:10.330Z,0.00
2022-11-28T06:53:10.434Z,0.00
2022-11-28T06:54:17.838Z,0.00
2022-11-28T06:55:10.856Z,0.00
2022-11-28T06:56:10.234Z,0.00
2022-11-28T06:57:10.129Z,0.00
2022-11-28T06:58:10.216Z,0.00
2022-11-28T06:59:10.077Z,0.00
2022-11-28T07:00:10.023Z,0.00
2022-11-28T07:01:10.145Z,0.00
2022-11-28T07:02:10.074Z,0.00
2022-11-28T07:03:09.977Z,0.00
2022-11-28T07:04:09.974Z,0.00
2022-11-28T07:05:10.085Z,0.00
2022-11-28T07:06:09.973Z,0.00
2022-11-28T07:07:15.028Z,0.00
2022-11-28T07:08:11.002Z,0.00
2022-11-28T07:09:10.156Z,0.00
2022-11-28T07:10:09.946Z,0.00
2022-11-28T07:11:09.888Z,0.00
2022-11-28T07:12:09.890Z,0.00
2022-11-28T07:13:09.875Z,0.00
2022-11-28T07:14:09.883Z,0.00
2022-11-28T07:15:09.849Z,0.00
2022-11-28T07:16:09.921Z,0.00
2022-11-28T07:17:09.898Z,0.00
2022-11-28T07:18:09.837Z,0.00
2022-11-28T07:19:09.804Z,0.00
2022-11-28T07:20:09.801Z,0.00
2022-11-28T07:21:09.893Z,0.00
2022-11-28T07:22:09.819Z,0.00
2022-11-28T07:23:09.762Z,5.62
2022-11-28T07:24:09.771Z,5.62
2022-11-28T07:25:09.734Z,5.62
2022-11-28T07:26:09.742Z,5.62
2022-11-28T07:27:09.716Z,5.62
2022-11-28T07:28:09.728Z,5.62
2022-11-28T07:29:09.711Z,5.62
2022-11-28T07:30:09.689Z,5.62
2022-11-28T07:31:09.672Z,5.62
2022-11-28T07:32:09.743Z,5.62
2022-11-28T07:33:09.646Z,5.62
2022-11-28T07:34:09.704Z,5.62
2022-11-28T07:35:09.625Z,5.62
2022-11-28T07:36:09.617Z,5.62
2022-11-28T07:37:09.746Z,5.62
2022-11-28T07:38:09.599Z,5.62
2022-11-28T07:39:09.607Z,5.62
2022-11-28T07:40:09.587Z,5.62
2022-11-28T07:41:09.561Z,5.62
2022-11-28T07:42:09.567Z,5.62
2022-11-28T07:43:09.540Z,5.62
2022-11-28T07:44:09.561Z,5.62
2022-11-28T07:45:09.511Z,11.25
2022-11-28T07:46:09.571Z,11.25
2022-11-28T07:47:09.565Z,11.25
2022-11-28T07:48:09.507Z,11.25
2022-11-28T07:49:09.469Z,11.25
2022-11-28T07:50:09.458Z,11.25
2022-11-28T07:51:09.448Z,11.25
2022-11-28T07:52:09.459Z,11.25
2022-11-28T07:53:09.485Z,11.25
2022-11-28T07:54:09.440Z,11.25
2022-11-28T07:55:09.417Z,11.25
2022-11-28T07:56:09.398Z,11.25
2022-11-28T07:57:13.464Z,11.25
2022-11-28T07:58:09.450Z,11.25
2022-11-28T07:59:09.381Z,11.25
2022-11-28T08:00:09.368Z,11.25
2022-11-28T08:01:09.389Z,5.62
2022-11-28T08:02:09.418Z,5.62
2022-11-28T08:03:09.321Z,5.62
2022-11-28T08:04:09.436Z,11.25
2022-11-28T08:05:09.542Z,11.25
2022-11-28T08:06:09.412Z,11.25
2022-11-28T08:07:09.409Z,11.25
2022-11-28T08:08:09.420Z,11.25
2022-11-28T08:09:09.304Z,11.25
2022-11-28T08:10:09.303Z,11.25
2022-11-28T08:11:09.300Z,11.25
2022-11-28T08:12:09.332Z,11.25
2022-11-28T08:13:09.257Z,11.25
2022-11-28T08:14:09.235Z,11.25
2022-11-28T08:15:09.273Z,11.25
2022-11-28T08:16:09.268Z,11.25
2022-11-28T08:17:09.223Z,16.88
2022-11-28T08:18:09.159Z,16.88
2022-11-28T08:19:21.628Z,16.88
2022-11-28T08:20:10.259Z,16.88
2022-11-28T08:21:09.303Z,16.88
2022-11-28T08:22:09.299Z,16.88
2022-11-28T08:23:09.241Z,16.88
2022-11-28T08:24:09.219Z,16.88
2022-11-28T08:25:09.256Z,16.88
2022-11-28T08:26:09.090Z,22.50
2022-11-28T08:27:09.100Z,22.50
2022-11-28T08:28:09.046Z,22.50
2022-11-28T08:29:09.086Z,22.50
2022-11-28T08:30:09.045Z,22.50
2022-11-28T08:31:09.102Z,22.50
2022-11-28T08:32:09.021Z,22.50
2022-11-28T08:33:08.978Z,22.50
2022-11-28T08:34:18.641Z,22.50
2022-11-28T08:35:09.017Z,22.50
2022-11-28T08:36:09.174Z,22.50
2022-11-28T08:37:09.112Z,22.50
2022-11-28T08:38:08.989Z,22.50
2022-11-28T08:39:23.357Z,22.50
2022-11-28T08:40:09.933Z,22.50
2022-11-28T08:41:08.980Z,22.50
2022-11-28T08:42:08.922Z,22.50
2022-11-28T08:43:09.006Z,22.50
2022-11-28T08:44:08.876Z,22.50
2022-11-28T08:45:08.928Z,22.50
2022-11-28T08:46:08.958Z,22.50
2022-11-28T08:47:08.977Z,22.50
2022-11-28T08:48:08.951Z,22.50
2022-11-28T08:49:08.875Z,22.50
2022-11-28T08:50:08.828Z,22.50
2022-11-28T08:51:08.865Z,22.50
2022-11-28T08:52:08.945Z,22.50
2022-11-28T08:53:08.932Z,22.50
2022-11-28T08:54:08.862Z,22.50
2022-11-28T08:55:08.861Z,22.50
2022-11-28T08:56:08.906Z,22.50
2022-11-28T08:57:08.818Z,22.50
2022-11-28T08:58:08.938Z,22.50
2022-11-28T08:59:20.663Z,22.50
2022-11-28T09:00:09.099Z,28.12
2022-11-28T09:01:10.204Z,28.12
2022-11-28T09:02:09.780Z,28.12
2022-11-28T09:03:08.904Z,28.12
2022-11-28T09:04:08.682Z,28.12
2022-11-28T09:05:09.016Z,28.12
2022-11-28T09:06:08.697Z,28.12
2022-11-28T09:07:08.623Z,28.12
2022-11-28T09:08:11.644Z,28.12
2022-11-28T09:09:08.607Z,28.12
2022-11-28T09:10:08.647Z,28.12
2022-11-28T09:11:08.681Z,28.12
2022-11-28T09:12:16.955Z,28.12
2022-11-28T09:14:20.510Z,28.12
2022-11-28T09:15:20.478Z,28.12
2022-11-28T09:16:20.509Z,28.12
2022-11-28T09:17:20.284Z,28.12
2022-11-28T09:18:20.408Z,28.12
2022-11-28T09:19:20.373Z,28.12
2022-11-28T09:20:20.272Z,28.12
2022-11-28T09:21:20.229Z,28.12
2022-11-28T09:22:20.162Z,28.12
2022-11-28T09:23:20.115Z,28.12
2022-11-28T09:24:20.381Z,28.12
2022-11-28T09:25:20.109Z,28.12
2022-11-28T09:26:20.109Z,28.12
2022-11-28T09:27:20.077Z,28.12
2022-11-28T09:28:20.051Z,28.12
2022-11-28T09:29:20.051Z,28.12
2022-11-28T09:30:20.141Z,28.12
2022-11-28T09:31:20.119Z,28.12
2022-11-28T09:32:20.042Z,28.12
2022-11-28T09:33:20.100Z,28.12
2022-11-28T09:34:20.333Z,28.12
2022-11-28T09:35:20.032Z,28.12
2022-11-28T09:36:20.053Z,28.12
2022-11-28T09:37:19.982Z,28.12
2022-11-28T09:38:20.032Z,28.12
2022-11-28T09:39:19.959Z,28.12
2022-11-28T09:40:20.512Z,28.12
2022-11-28T09:41:20.054Z,28.12
2022-11-28T09:42:19.952Z,28.12
2022-11-28T09:43:19.963Z,28.12
2022-11-28T09:44:20.320Z,28.12
2022-11-28T09:45:19.981Z,28.12
2022-11-28T09:46:28.756Z,28.12
2022-11-28T09:47:19.987Z,28.12
2022-11-28T09:48:19.993Z,28.12
2022-11-28T09:49:20.179Z,28.12
2022-11-28T09:50:19.832Z,28.12
2022-11-28T09:51:20.114Z,28.12
2022-11-28T09:52:19.873Z,28.12
2022-11-28T09:53:20.097Z,28.12
2022-11-28T09:54:29.876Z,28.12
2022-11-28T09:55:19.880Z,28.12
2022-11-28T09:56:19.879Z,28.12
2022-11-28T09:57:19.919Z,28.12
2022-11-28T09:58:19.821Z,33.75
2022-11-28T09:59:19.724Z,33.75
2022-11-28T10:00:19.706Z,33.75
2022-11-28T10:01:19.801Z,33.75
2022-11-28T10:02:19.686Z,33.75
2022-11-28T10:03:19.757Z,33.75
2022-11-28T10:04:19.925Z,33.75
2022-11-28T10:05:19.772Z,33.75
2022-11-28T10:06:19.706Z,33.75
2022-11-28T10:07:21.112Z,33.75
2022-11-28T10:08:20.573Z,33.75
2022-11-28T10:09:27.374Z,33.75
2022-11-28T10:10:19.932Z,33.75
2022-11-28T10:11:19.747Z,33.75
2022-11-28T10:12:19.723Z,33.75
2022-11-28T10:13:19.707Z,33.75
2022-11-28T10:14:19.650Z,33.75
2022-11-28T10:15:19.608Z,33.75
2022-11-28T10:16:19.541Z,39.38
2022-11-28T10:17:19.583Z,39.38
2022-11-28T10:18:19.549Z,39.38
2022-11-28T10:19:46.066Z,39.38
2022-11-28T10:20:20.477Z,39.38
2022-11-28T10:21:19.578Z,39.38
2022-11-28T10:22:19.448Z,39.38
2022-11-28T10:23:19.489Z,39.38
2022-11-28T10:26:42.887Z,39.38
2022-11-28T10:34:16.600Z,39.38
2022-11-28T10:35:16.545Z,39.38
2022-11-28T10:36:16.568Z,39.38
2022-11-28T10:37:16.668Z,39.38
2022-11-28T10:38:16.482Z,39.38
2022-11-28T10:39:16.534Z,39.38
2022-11-28T10:40:16.503Z,45.00
2022-11-28T10:41:16.374Z,45.00
2022-11-28T10:42:16.337Z,45.00
2022-11-28T10:43:16.352Z,45.00
2022-11-28T10:44:21.343Z,45.00
2022-11-28T10:45:17.336Z,45.00
2022-11-28T10:46:16.387Z,45.00
2022-11-28T10:47:16.293Z,45.00
2022-11-28T10:48:39.051Z,45.00
2022-11-28T10:49:17.252Z,45.00
2022-11-28T10:50:16.298Z,45.00
2022-11-28T10:51:16.222Z,45.00
2022-11-28T10:52:16.213Z,45.00
2022-11-28T10:53:16.209Z,45.00
2022-11-28T10:54:16.205Z,45.00
2022-11-28T10:55:16.250Z,45.00
2022-11-28T10:56:16.192Z,45.00
2022-11-28T10:57:16.159Z,45.00
2022-11-28T10:58:16.254Z,45.00
2022-11-28T10:59:16.145Z,45.00
2022-11-28T11:00:16.129Z,45.00
2022-11-28T11:01:16.177Z,45.00
2022-11-28T11:02:16.195Z,39.38
2022-11-28T11:03:16.127Z,39.38
2022-11-28T11:04:16.167Z,39.38
2022-11-28T11:05:16.136Z,39.38
2022-11-28T11:06:16.185Z,39.38
2022-11-28T11:07:20.176Z,39.38
2022-11-28T11:08:17.127Z,39.38
2022-11-28T11:09:16.044Z,39.38
2022-11-28T11:10:16.075Z,39.38
2022-11-28T11:11:16.037Z,39.38
2022-11-28T11:12:15.994Z,39.38
2022-11-28T11:13:15.989Z,39.38
2022-11-28T11:14:15.985Z,39.38
2022-11-28T11:15:16.004Z,39.38
2022-11-28T11:16:15.981Z,39.38
2022-11-28T11:17:15.980Z,39.38
2022-11-28T11:18:15.927Z,39.38
2022-11-28T11:19:15.925Z,39.38
2022-11-28T11:20:15.925Z,39.38
2022-11-28T11:21:15.891Z,39.38
2022-11-28T11:22:16.013Z,39.38
2022-11-28T11:23:15.905Z,39.38
2022-11-28T11:24:15.913Z,39.38
2022-11-28T11:25:15.893Z,39.38
2022-11-28T11:26:15.874Z,39.38
2022-11-28T11:27:15.853Z,39.38
2022-11-28T11:28:15.837Z,39.38
2022-11-28T11:29:15.812Z,39.38
2022-11-28T11:30:15.860Z,39.38
2022-11-28T11:31:15.831Z,39.38
2022-11-28T11:32:15.779Z,39.38
2022-11-28T11:33:15.826Z,33.75
2022-11-28T11:34:15.783Z,33.75
2022-11-28T11:35:15.740Z,33.75
2022-11-28T11:36:15.779Z,33.75
2022-11-28T11:37:15.734Z,33.75
2022-11-28T11:38:15.784Z,33.75
2022-11-28T11:39:15.740Z,33.75
2022-11-28T11:40:15.674Z,33.75
2022-11-28T11:41:15.671Z,33.75
2022-11-28T11:42:15.682Z,33.75
2022-11-28T11:43:15.646Z,33.75
2022-11-28T11:44:15.696Z,33.75
2022-11-28T11:45:15.617Z,33.75
2022-11-28T11:46:15.690Z,33.75
2022-11-28T11:47:15.664Z,33.75
2022-11-28T11:48:15.589Z,33.75
2022-11-28T11:49:15.598Z,28.12
2022-11-28T11:50:15.589Z,28.12
2022-11-28T11:51:15.588Z,28.12
2022-11-28T11:52:15.592Z,28.12
2022-11-28T11:53:15.542Z,28.12
2022-11-28T11:54:15.555Z,28.12
2022-11-28T11:55:15.505Z,28.12
2022-11-28T11:56:15.535Z,28.12
2022-11-28T11:57:32.505Z,28.12
2022-11-28T11:58:16.508Z,28.12
2022-11-28T11:59:15.459Z,28.12
2022-11-28T12:00:15.461Z,28.12
2022-11-28T12:01:15.443Z,28.12
2022-11-28T12:02:15.579Z,28.12
2022-11-28T12:03:15.541Z,28.12
2022-11-28T12:04:43.274Z,28.12
2022-11-28T12:05:16.393Z,28.12
2022-11-28T12:06:15.608Z,28.12
2022-11-28T12:07:15.421Z,28.12
2022-11-28T12:08:15.395Z,28.12
2022-11-28T12:09:15.508Z,28.12
2022-11-28T12:10:15.454Z,28.12
2022-11-28T12:11:15.324Z,28.12
2022-11-28T12:12:15.333Z,28.12
2022-11-28T12:13:15.903Z,28.12
2022-11-28T12:14:15.321Z,28.12
2022-11-28T12:15:15.299Z,28.12
2022-11-28T12:16:15.329Z,28.12
2022-11-28T12:18:16.246Z,28.12
2022-11-28T12:19:15.234Z,28.12
2022-11-28T12:20:15.250Z,28.12
2022-11-28T12:21:15.398Z,28.12
2022-11-28T12:22:15.239Z,28.12
2022-11-28T12:23:17.550Z,28.12
2022-11-28T12:24:15.247Z,28.12
2022-11-28T12:25:15.905Z,28.12
2022-11-28T12:26:15.192Z,28.12
2022-11-28T12:27:15.332Z,28.12
2022-11-28T12:28:15.141Z,28.12
2022-11-28T12:29:15.153Z,28.12
2022-11-28T12:30:15.127Z,28.12
2022-11-28T12:31:15.162Z,28.12
2022-11-28T12:32:15.159Z,28.12
2022-11-28T12:33:15.088Z,28.12
2022-11-28T12:34:15.071Z,28.12
2022-11-28T12:35:15.056Z,28.12
2022-11-28T12:36:15.070Z,28.12
2022-11-28T12:37:15.074Z,28.12
2022-11-28T12:38:15.055Z,28.12
2022-11-28T12:39:15.009Z,22.50
2022-11-28T12:40:15.003Z,22.50
2022-11-28T12:41:15.007Z,22.50
2022-11-28T12:42:15.071Z,22.50
2022-11-28T12:43:14.975Z,22.50
2022-11-28T12:44:14.978Z,22.50
2022-11-28T12:45:14.940Z,22.50
2022-11-28T12:46:14.963Z,22.50
2022-11-28T12:47:14.973Z,22.50
2022-11-28T12:48:14.918Z,22.50
2022-11-28T12:49:14.912Z,22.50
2022-11-28T12:50:14.909Z,22.50
2022-11-28T12:51:14.879Z,22.50
2022-11-28T12:52:14.888Z,22.50
2022-11-28T12:53:14.903Z,22.50
2022-11-28T12:54:14.848Z,22.50
2022-11-28T12:55:14.831Z,16.88
2022-11-28T12:56:14.816Z,16.88
2022-11-28T12:57:14.819Z,16.88
2022-11-28T12:58:14.830Z,16.88
2022-11-28T12:59:14.803Z,16.88
2022-11-28T13:00:14.919Z,16.88
2022-11-28T13:01:14.783Z,16.88
2022-11-28T13:02:14.923Z,16.88
2022-11-28T13:03:14.857Z,16.88
2022-11-28T13:04:14.736Z,16.88
2022-11-28T13:05:14.760Z,16.88
2022-11-28T13:06:14.719Z,16.88
2022-11-28T13:07:14.775Z,16.88
2022-11-28T13:08:14.688Z,16.88
2022-11-28T13:09:14.725Z,16.88
2022-11-28T13:10:14.675Z,16.88
2022-11-28T13:11:14.662Z,16.88
2022-11-28T13:12:14.695Z,16.88
2022-11-28T13:13:14.651Z,16.88
2022-11-28T13:14:14.780Z,16.88
2022-11-28T13:15:14.608Z,16.88
2022-11-28T13:16:14.677Z,16.88
2022-11-28T13:17:14.597Z,16.88
2022-11-28T13:18:14.579Z,16.88
2022-11-28T13:19:14.592Z,16.88
2022-11-28T13:20:14.606Z,16.88
2022-11-28T13:21:14.549Z,16.88
2022-11-28T13:22:14.523Z,16.88
2022-11-28T13:23:14.525Z,16.88
2022-11-28T13:24:14.517Z,16.88
2022-11-28T13:25:14.550Z,16.88
2022-11-28T13:26:14.496Z,16.88
2022-11-28T13:27:14.509Z,16.88
2022-11-28T13:28:14.470Z,16.88
2022-11-28T13:29:14.490Z,16.88
2022-11-28T13:30:14.451Z,11.25
2022-11-28T13:31:14.514Z,11.25
2022-11-28T13:32:14.421Z,11.25
2022-11-28T13:33:14.417Z,11.25
2022-11-28T13:34:14.497Z,11.25
2022-11-28T13:35:14.387Z,11.25
2022-11-28T13:38:34.853Z,11.25
2022-11-28T13:39:16.757Z,11.25